Weather at Lower Marlboro Airport [CLOSED]

Public forecast

Using degrees Fahrenheit for public forecast. Weather courtesy of forecast.io.

Closest aviation weather report (METAR) to Lower Marlboro Airport

Report is more than 2 hours old.

Closest report is Joint Base Andrews, 13.0 nm (24.1 km) NW.

2024/05/21 13:55 (retrieved 3 hours ago)

KADW 211355Z AUTO 20004KT 10SM CLR 24/18 A3002 RMK AO2 SLP171 T02380180

Closest aviation forecast (TAF) to Lower Marlboro Airport

Closest forecast is Joint Base Andrews, 13.0 nm (24.1 km) NW.

2024/05/21 12:22 Ammendment (retrieved 5 hours ago)

TAF AMD KADW 211200Z 2112/2215 22003KT 9999 FEW180 QNH2999INS BECMG 2115/2116 17008KT 9999 FEW250 QNH3000INS BECMG 2122/2123 16006KT 9999 FEW050 SCT250 QNH2996INS BECMG 2209/2210 19008KT 8000 BR FEW010 510052 QNH2998INS BECMG 2212/2213 19010KT 9999 NSW SKC QNH2998INS TX27/2120Z TN16/2207Z